Time;durP1;ratioP1;P1;durP2;ratioP2;P2;SDS_P1;SDS_P2;PMS_P1;PMS_P2;Temp;Humidity;BMP_temperature;BMP_pressure;BME280_temperature;BME280_humidity;BME280_pressure;Samples;Min_cycle;Max_cycle;Signal;HPM_P1;HPM_P2
2023/03/14 00:01:16;;;;;;;28.17;26.75;;;;;;;16.85;56.94;98866.47;5057389;28;20041;-67
2023/03/14 00:03:43;;;;;;;26.90;25.17;;;;;;;16.80;56.66;98866.66;5052397;28;20457;-67
2023/03/14 00:06:09;;;;;;;29.08;27.58;;;;;;;16.78;56.95;98874.41;5045255;28;20122;-67
2023/03/14 00:08:36;;;;;;;26.42;25.13;;;;;;;16.77;57.07;98875.47;5035766;28;20034;-68
2023/03/14 00:11:21;;;;;;;27.42;25.88;;;;;;;16.76;57.04;98871.16;5042027;28;20033;-68
2023/03/14 00:13:48;;;;;;;26.25;24.85;;;;;;;16.74;56.64;98873.41;5042623;28;20037;-68
2023/03/14 00:16:14;;;;;;;29.48;27.50;;;;;;;16.75;56.88;98876.94;5034536;28;20059;-67
2023/03/14 00:18:39;;;;;;;26.00;24.50;;;;;;;16.72;56.98;98874.88;5035097;28;20465;-67
2023/03/14 00:21:07;;;;;;;30.02;27.70;;;;;;;16.71;57.01;98868.63;5043015;28;20029;-66
2023/03/14 00:23:34;;;;;;;27.77;26.38;;;;;;;16.68;56.75;98871.97;5052293;28;20038;-67
2023/03/14 00:26:05;;;;;;;27.10;25.60;;;;;;;16.67;56.99;98873.91;5034577;28;20029;-68
2023/03/14 00:28:31;;;;;;;26.63;25.20;;;;;;;16.66;56.91;98869.59;5034991;28;20108;-67
2023/03/14 00:30:56;;;;;;;28.08;26.67;;;;;;;16.64;56.79;98873.78;5035828;28;20034;-67
2023/03/14 00:33:22;;;;;;;26.70;25.40;;;;;;;16.62;56.67;98884.22;5060242;28;20041;-67
2023/03/14 00:35:59;;;;;;;27.75;26.25;;;;;;;16.57;56.41;98878.94;5034858;28;20235;-67
2023/03/14 00:38:25;;;;;;;25.70;24.40;;;;;;;16.56;56.44;98883.59;5033206;28;20033;-67
2023/03/14 00:40:54;;;;;;;28.08;26.52;;;;;;;16.59;56.97;98882.94;5036554;28;20123;-67
2023/03/14 00:43:23;;;;;;;25.70;24.15;;;;;;;16.58;56.80;98870.47;5043170;28;20492;-66
2023/03/14 00:45:52;;;;;;;;;;;;;;;16.52;56.66;98869.03;5053344;28;20033;-68
2023/03/14 00:48:18;;;;;;;;;;;;;;;16.50;56.96;98871.28;5050256;28;20331;-67
2023/03/14 00:50:43;;;;;;;24.95;23.48;;;;;;;16.48;56.90;98867.28;5035290;28;19917;-67
2023/03/14 00:53:09;;;;;;;27.33;25.83;;;;;;;16.50;56.65;98870.47;5046097;28;20044;-66
2023/03/14 00:55:39;;;;;;;25.40;23.95;;;;;;;16.48;56.83;98868.09;5054108;28;20458;-66
2023/03/14 00:58:05;;;;;;;26.48;25.13;;;;;;;16.48;56.55;98873.56;5033954;28;20065;-67
2023/03/14 01:00:32;;;;;;;27.33;25.83;;;;;;;16.47;56.39;98882.03;5034340;28;20037;-67
2023/03/14 01:02:57;;;;;;;27.27;25.98;;;;;;;16.42;57.03;98870.19;5044243;28;20133;-66
2023/03/14 01:05:23;;;;;;;26.20;24.80;;;;;;;16.45;56.84;98866.00;5062050;28;20160;-67
2023/03/14 01:07:48;;;;;;;25.17;23.88;;;;;;;16.41;56.97;98865.09;5041741;28;20095;-66
2023/03/14 01:10:14;;;;;;;26.50;24.92;;;;;;;16.40;56.93;98866.19;5033620;28;20048;-67
2023/03/14 01:12:39;;;;;;;27.50;25.75;;;;;;;16.39;56.67;98856.44;5037900;28;20038;-67
2023/03/14 01:15:05;;;;;;;26.27;24.98;;;;;;;16.39;56.80;98859.94;5043384;28;20060;-67
2023/03/14 01:17:31;;;;;;;26.17;24.88;;;;;;;16.36;56.64;98855.16;5049513;28;20038;-67
2023/03/14 01:19:56;;;;;;;25.42;24.23;;;;;;;16.39;56.60;98856.44;5033697;28;20111;-67
2023/03/14 01:22:21;;;;;;;28.13;26.25;;;;;;;16.38;57.01;98846.66;5036978;28;20045;-68
2023/03/14 01:24:47;;;;;;;25.38;24.17;;;;;;;16.33;57.04;98838.66;5051566;28;20040;-67
2023/03/14 01:27:12;;;;;;;27.80;26.00;;;;;;;16.34;56.50;98851.97;5033559;28;20088;-67
2023/03/14 01:29:38;;;;;;;26.33;24.63;;;;;;;16.33;56.84;98853.09;5033891;28;20083;-67
2023/03/14 01:32:03;;;;;;;25.10;23.80;;;;;;;16.35;56.88;98850.81;5033690;28;20199;-66
2023/03/14 01:34:29;;;;;;;26.98;25.58;;;;;;;16.34;56.87;98853.88;5060828;28;20025;-67
2023/03/14 01:36:54;;;;;;;26.30;24.80;;;;;;;16.30;56.65;98842.03;5045993;28;20390;-67
2023/03/14 01:39:20;;;;;;;27.65;25.95;;;;;;;16.31;56.57;98830.81;5048745;28;20029;-68
2023/03/14 01:41:45;;;;;;;26.30;25.00;;;;;;;16.31;56.79;98836.28;5033328;28;20033;-67
2023/03/14 01:44:12;;;;;;;26.48;25.13;;;;;;;16.31;56.73;98840.94;5054081;28;20465;-67
2023/03/14 01:46:41;;;;;;;25.95;24.55;;;;;;;16.31;56.35;98840.94;5057945;28;20085;-69
2023/03/14 01:49:27;;;;;;;25.17;23.98;;;;;;;16.29;56.74;98841.25;5035694;28;20068;-67
2023/03/14 01:51:52;;;;;;;24.92;23.42;;;;;;;16.26;56.46;98841.91;5033079;28;20038;-68
2023/03/14 01:54:33;;;;;;;27.83;26.20;;;;;;;16.25;56.71;98834.84;5041196;28;20036;-67
2023/03/14 01:57:29;;;;;;;26.75;25.15;;;;;;;16.22;56.70;98832.78;5060458;28;20040;-67
2023/03/14 02:00:04;;;;;;;25.98;24.40;;;;;;;16.21;56.65;98825.75;5032960;28;20022;-67
2023/03/14 02:02:30;;;;;;;25.95;24.38;;;;;;;16.19;56.98;98834.22;5032837;28;20109;-67
2023/03/14 02:04:56;;;;;;;25.50;24.20;;;;;;;16.20;56.80;98818.69;5040414;28;20029;-67
2023/03/14 02:07:46;;;;;;;27.15;25.73;;;;;;;16.17;56.82;98822.84;5047696;28;20103;-67
2023/03/14 02:10:12;;;;;;;24.55;23.35;;;;;;;16.16;56.65;98821.25;5032459;28;20037;-67
2023/03/14 02:12:38;;;;;;;25.30;24.00;;;;;;;16.15;56.50;98819.69;5048530;28;20123;-67
2023/03/14 02:15:04;;;;;;;26.52;25.00;;;;;;;16.14;56.97;98820.00;5037278;28;20036;-67
2023/03/14 02:17:30;;;;;;;27.70;26.20;;;;;;;16.14;56.95;98809.88;5048727;28;20037;-68
2023/03/14 02:20:05;;;;;;;24.98;23.77;;;;;;;16.14;56.68;98814.53;5032885;28;20053;-68
2023/03/14 02:22:32;;;;;;;24.60;23.40;;;;;;;16.13;56.54;98800.13;5032632;28;20408;-67
2023/03/14 02:25:21;;;;;;;24.67;23.17;;;;;;;16.12;56.76;98803.19;5032721;28;20029;-69
2023/03/14 02:27:48;;;;;;;26.48;24.98;;;;;;;16.11;56.93;98801.59;5042756;28;20037;-67
2023/03/14 02:30:32;;;;;;;25.23;23.92;;;;;;;16.09;56.54;98795.66;5032318;28;20056;-65
2023/03/14 02:33:11;;;;;;;24.20;23.00;;;;;;;16.08;56.97;98797.59;5032718;28;20053;-66
2023/03/14 02:35:59;;;;;;;24.42;23.02;;;;;;;16.07;56.92;98797.91;5047662;28;20150;-67
2023/03/14 02:38:58;;;;;;;27.50;25.85;;;;;;;16.04;56.70;98801.28;5062145;28;20507;-68
2023/03/14 02:41:23;;;;;;;;;;;;;;;16.00;56.76;98809.28;5047817;28;20053;-66
2023/03/14 02:43:49;;;;;;;24.50;22.90;;;;;;;15.99;56.96;98799.53;5032474;28;20361;-67
2023/03/14 02:46:18;;;;;;;24.25;22.98;;;;;;;15.99;57.01;98802.25;5037287;28;20034;-68
2023/03/14 02:48:53;;;;;;;24.38;23.17;;;;;;;16.00;57.00;98784.78;5067820;28;20028;-66
2023/03/14 02:51:19;;;;;;;25.75;24.40;;;;;;;16.00;57.25;98793.78;5032030;28;20474;-66
2023/03/14 02:53:45;;;;;;;26.80;25.50;;;;;;;16.00;56.60;98785.63;5032079;28;20040;-68
2023/03/14 02:56:10;;;;;;;25.83;24.27;;;;;;;15.99;57.04;98800.34;5069997;28;20036;-67
2023/03/14 02:58:36;;;;;;;26.52;25.15;;;;;;;15.97;56.98;98797.13;5042830;28;20033;-67
2023/03/14 03:01:01;;;;;;;27.00;25.35;;;;;;;15.99;56.66;98791.38;5032554;28;20389;-68
2023/03/14 03:03:27;;;;;;;28.35;26.65;;;;;;;15.99;56.90;98794.09;5046950;28;20437;-67
2023/03/14 03:05:55;;;;;;;25.88;24.20;;;;;;;15.99;56.94;98797.59;5058024;28;20032;-67
2023/03/14 03:08:22;;;;;;;26.83;25.15;;;;;;;15.96;56.90;98790.09;5061665;28;20032;-66
2023/03/14 03:10:48;;;;;;;24.45;23.13;;;;;;;15.98;57.11;98792.50;5063892;28;20085;-67
2023/03/14 03:13:14;;;;;;;27.55;25.42;;;;;;;15.97;56.61;98799.84;5041873;28;20034;-68
2023/03/14 03:15:40;;;;;;;25.70;24.30;;;;;;;15.96;57.07;98795.53;5031937;28;20034;-69
2023/03/14 03:18:06;;;;;;;25.27;23.77;;;;;;;15.98;56.76;98795.22;5046457;28;20059;-67
2023/03/14 03:20:31;;;;;;;26.13;24.63;;;;;;;15.97;56.69;98793.63;5064715;28;20043;-68
2023/03/14 03:22:58;;;;;;;25.10;23.83;;;;;;;15.95;57.08;98799.41;5032085;28;20159;-67
2023/03/14 03:25:24;;;;;;;27.13;25.73;;;;;;;15.94;57.13;98792.34;5031437;28;20109;-67
2023/03/14 03:27:49;;;;;;;24.83;23.45;;;;;;;15.93;56.99;98777.16;5057669;28;20458;-68
2023/03/14 03:30:15;;;;;;;26.27;24.58;;;;;;;15.91;56.94;98765.78;5063292;28;20041;-67
2023/03/14 03:32:40;;;;;;;25.33;23.80;;;;;;;15.94;56.45;98772.50;5056801;28;20740;-66
2023/03/14 03:35:06;;;;;;;25.35;24.13;;;;;;;15.93;56.80;98771.69;5031781;28;20405;-67
2023/03/14 03:37:33;;;;;;;25.13;23.80;;;;;;;15.92;56.70;98774.72;5031814;28;20040;-67
2023/03/14 03:40:00;;;;;;;25.35;24.15;;;;;;;15.91;56.52;98775.88;5040741;28;20041;-67
2023/03/14 03:42:27;;;;;;;27.55;25.92;;;;;;;15.89;56.70;98775.41;5031325;28;20033;-66
2023/03/14 03:44:52;;;;;;;23.92;22.63;;;;;;;15.90;57.05;98780.53;5031908;28;20037;-68
2023/03/14 03:47:18;;;;;;;24.00;22.80;;;;;;;15.90;56.74;98776.97;5031778;28;20504;-68
2023/03/14 03:49:43;;;;;;;25.58;24.27;;;;;;;15.88;56.97;98771.88;5037527;28;20033;-67
2023/03/14 03:52:09;;;;;;;23.70;22.58;;;;;;;15.88;56.59;98774.59;5046512;28;20029;-68
2023/03/14 03:54:35;;;;;;;26.73;25.13;;;;;;;15.85;56.96;98771.72;5031074;28;20065;-67
2023/03/14 03:57:00;;;;;;;25.20;23.98;;;;;;;15.85;56.59;98785.31;5031328;28;20503;-67
2023/03/14 03:59:25;;;;;;;27.05;25.42;;;;;;;15.85;56.78;98779.88;5031112;28;20046;-67
2023/03/14 04:01:51;;;;;;;23.63;22.40;;;;;;;15.84;56.79;98787.25;5064662;28;20040;-67
2023/03/14 04:04:16;;;;;;;25.70;24.45;;;;;;;15.79;56.66;98774.63;5031836;28;20489;-68
2023/03/14 04:06:44;;;;;;;25.90;23.75;;;;;;;15.78;56.64;98781.19;5030813;28;20081;-67
2023/03/14 04:09:11;;;;;;;25.75;24.35;;;;;;;15.79;56.78;98779.25;5031438;28;20537;-67
2023/03/14 04:11:36;;;;;;;26.45;24.95;;;;;;;15.78;56.56;98772.25;5049769;28;20034;-67
2023/03/14 04:14:02;;;;;;;25.73;24.42;;;;;;;15.76;57.06;98771.75;5034887;28;20117;-66
2023/03/14 04:16:27;;;;;;;26.60;25.10;;;;;;;15.75;57.10;98772.91;5030942;28;20470;-67
2023/03/14 04:18:53;;;;;;;23.40;22.10;;;;;;;15.76;57.05;98777.19;5031326;28;20533;-67
2023/03/14 04:21:19;;;;;;;24.10;22.90;;;;;;;15.74;56.77;98772.06;5039998;28;20450;-67
2023/03/14 04:23:44;;;;;;;25.10;23.80;;;;;;;15.71;56.81;98777.38;5033980;28;20611;-67
2023/03/14 04:26:10;;;;;;;25.77;24.20;;;;;;;15.71;56.92;98774.66;5034394;28;20033;-68
2023/03/14 04:28:36;;;;;;;25.00;23.55;;;;;;;15.70;56.67;98773.84;5046042;28;20139;-67
2023/03/14 04:31:14;;;;;;;23.38;22.17;;;;;;;15.70;56.92;98778.47;5035643;28;20075;-67
2023/03/14 04:33:40;;;;;;;24.80;23.05;;;;;;;15.72;56.55;98778.97;5030225;28;20033;-68
2023/03/14 04:36:06;;;;;;;24.48;23.25;;;;;;;15.70;56.97;98770.31;5031308;28;20037;-67
2023/03/14 04:38:32;;;;;;;24.83;23.20;;;;;;;15.70;57.12;98762.97;5044511;28;20033;-67
2023/03/14 04:40:58;;;;;;;23.88;22.58;;;;;;;15.69;56.93;98752.38;5040545;28;20041;-68
2023/03/14 04:43:25;;;;;;;23.95;22.75;;;;;;;15.69;57.06;98753.19;5068498;28;20116;-70
2023/03/14 04:45:51;;;;;;;23.10;21.95;;;;;;;15.67;56.76;98746.44;5034286;28;20371;-67
2023/03/14 04:48:17;;;;;;;24.65;23.35;;;;;;;15.65;56.97;98744.06;5035048;28;20044;-67
2023/03/14 04:50:42;;;;;;;25.73;24.10;;;;;;;15.64;57.11;98747.91;5036083;28;20429;-67
2023/03/14 04:53:07;;;;;;;25.60;24.13;;;;;;;15.63;56.75;98756.41;5036068;28;20041;-67
2023/03/14 04:55:34;;;;;;;23.63;22.42;;;;;;;15.61;57.05;98756.72;5033988;28;20041;-67
2023/03/14 04:58:00;;;;;;;25.95;24.65;;;;;;;15.61;56.88;98747.75;5034484;28;20033;-67
2023/03/14 05:00:25;;;;;;;25.02;23.65;;;;;;;15.59;56.86;98748.88;5034013;28;20397;-68
2023/03/14 05:02:50;;;;;;;24.48;23.20;;;;;;;15.58;56.82;98747.28;5051506;28;20036;-67
2023/03/14 05:05:16;;;;;;;23.90;22.38;;;;;;;15.59;56.79;98742.63;5052061;28;20029;-68
2023/03/14 05:07:42;;;;;;;24.33;23.02;;;;;;;15.59;57.01;98748.88;5048958;28;20045;-67
2023/03/14 05:10:08;;;;;;;25.30;24.00;;;;;;;15.61;56.56;98758.66;5034647;28;20113;-67
2023/03/14 05:12:33;;;;;;;26.35;24.55;;;;;;;15.59;57.10;98754.31;5036792;28;20029;-66
2023/03/14 05:14:58;;;;;;;24.17;22.98;;;;;;;15.58;56.92;98754.66;5050042;28;20044;-67
2023/03/14 05:17:24;;;;;;;24.10;22.90;;;;;;;15.55;56.89;98745.22;5039966;28;20056;-67
2023/03/14 05:19:49;;;;;;;23.77;22.58;;;;;;;15.55;56.64;98749.88;5033915;28;20116;-67
2023/03/14 05:22:14;;;;;;;25.10;23.90;;;;;;;15.53;57.02;98744.72;5033985;28;20505;-67
2023/03/14 05:24:40;;;;;;;25.20;23.80;;;;;;;15.54;57.09;98742.81;5048373;28;20083;-67
2023/03/14 05:27:05;;;;;;;24.02;22.73;;;;;;;15.55;56.60;98736.25;5058661;28;20035;-67
2023/03/14 05:29:31;;;;;;;25.05;23.70;;;;;;;15.55;56.64;98741.69;5039261;28;20033;-67
2023/03/14 05:31:56;;;;;;;24.08;22.88;;;;;;;15.53;56.68;98727.63;5033872;28;20080;-67
2023/03/14 05:34:21;;;;;;;25.40;24.00;;;;;;;15.53;57.05;98735.78;5053981;28;20128;-67
2023/03/14 05:36:47;;;;;;;26.00;24.65;;;;;;;15.52;56.97;98718.66;5033853;28;20141;-68
2023/03/14 05:39:12;;;;;;;25.27;23.85;;;;;;;15.50;56.69;98731.78;5036794;28;20489;-67
2023/03/14 05:41:38;;;;;;;25.75;24.23;;;;;;;15.49;57.21;98719.28;5053605;28;20120;-67
2023/03/14 05:44:03;;;;;;;23.85;22.45;;;;;;;15.48;57.03;98716.91;5053195;28;20385;-66
2023/03/14 05:46:30;;;;;;;26.08;24.67;;;;;;;15.46;57.33;98719.16;5064718;28;20116;-70
2023/03/14 05:48:57;;;;;;;26.67;24.98;;;;;;;15.47;56.86;98724.28;5052903;28;20120;-67
2023/03/14 05:51:22;;;;;;;23.85;22.52;;;;;;;15.46;56.94;98719.16;5053490;28;20028;-67
2023/03/14 05:53:48;;;;;;;24.00;22.70;;;;;;;15.45;56.84;98721.06;5051799;28;20317;-67
2023/03/14 05:56:13;;;;;;;24.15;22.75;;;;;;;15.45;57.24;98723.78;5069899;28;20036;-67
2023/03/14 05:58:38;;;;;;;24.10;22.70;;;;;;;15.45;56.94;98731.16;5051551;28;20045;-67
2023/03/14 06:01:05;;;;;;;25.00;23.60;;;;;;;15.45;57.11;98723.78;5067504;28;20040;-68
2023/03/14 06:03:31;;;;;;;24.17;22.52;;;;;;;15.44;56.76;98724.09;5056308;28;20608;-68
2023/03/14 06:05:57;;;;;;;23.50;22.30;;;;;;;15.41;57.25;98722.84;5061026;28;20124;-67
2023/03/14 06:08:22;;;;;;;23.45;22.25;;;;;;;15.42;56.75;98727.16;5032563;28;20072;-67
2023/03/14 06:10:47;;;;;;;24.75;23.25;;;;;;;15.42;57.04;98729.06;5032777;28;20032;-68
2023/03/14 06:13:15;;;;;;;23.65;22.42;;;;;;;15.41;56.93;98722.84;5038424;28;20412;-67
2023/03/14 06:15:40;;;;;;;23.85;22.52;;;;;;;15.40;56.76;98726.69;5068192;28;20037;-67
2023/03/14 06:18:06;;;;;;;23.58;22.23;;;;;;;15.40;56.95;98732.13;5044561;28;20124;-67
2023/03/14 06:20:32;;;;;;;22.50;21.30;;;;;;;15.38;57.21;98728.94;5050788;28;20071;-70
2023/03/14 06:22:58;;;;;;;25.27;23.65;;;;;;;15.38;57.13;98725.41;5038025;28;20459;-67
2023/03/14 06:25:23;;;;;;;25.05;23.75;;;;;;;15.38;57.09;98722.69;5048130;28;20040;-67
2023/03/14 06:27:49;;;;;;;24.08;22.35;;;;;;;15.36;57.33;98729.25;5044085;28;20065;-68
2023/03/14 06:30:14;;;;;;;23.33;21.92;;;;;;;15.36;56.66;98731.97;5042606;28;20061;-67
2023/03/14 06:32:40;;;;;;;24.90;23.40;;;;;;;15.35;57.12;98732.31;5032403;28;20036;-68
2023/03/14 06:35:05;;;;;;;23.73;22.50;;;;;;;15.34;57.26;98731.47;5032747;28;20124;-67
2023/03/14 06:37:30;;;;;;;24.92;23.63;;;;;;;15.34;57.09;98733.41;5041746;28;20038;-67
2023/03/14 06:39:56;;;;;;;23.42;22.13;;;;;;;15.33;56.93;98735.34;5042714;28;20044;-67
2023/03/14 06:42:22;;;;;;;24.50;23.15;;;;;;;15.34;56.92;98747.00;5032341;28;20033;-67
2023/03/14 06:44:47;;;;;;;25.55;23.90;;;;;;;15.31;56.98;98744.94;5032052;28;20041;-67
2023/03/14 06:47:13;;;;;;;23.60;22.30;;;;;;;15.32;57.29;98743.81;5044807;28;20036;-67
2023/03/14 06:49:38;;;;;;;24.45;23.15;;;;;;;15.30;57.18;98743.34;5057881;28;20440;-67
2023/03/14 06:52:04;;;;;;;23.10;21.90;;;;;;;15.29;56.92;98764.28;5031168;28;20043;-68
2023/03/14 06:54:29;;;;;;;25.48;24.10;;;;;;;15.25;57.27;98760.63;5032443;28;20389;-67
2023/03/14 06:56:55;;;;;;;25.95;24.40;;;;;;;15.26;57.18;98770.38;5032982;28;20040;-68
2023/03/14 06:59:20;;;;;;;24.25;22.70;;;;;;;15.26;56.92;98773.09;5064038;28;20159;-68
2023/03/14 07:01:46;;;;;;;25.30;23.75;;;;;;;15.18;57.23;98775.84;5031846;28;20071;-68
2023/03/14 07:04:11;;;;;;;25.00;23.17;;;;;;;15.13;57.72;98801.28;5031496;28;20359;-68
2023/03/14 07:06:37;;;;;;;26.85;25.17;;;;;;;14.99;58.21;98861.22;5046953;28;20450;-67
2023/03/14 07:09:03;;;;;;;25.55;24.05;;;;;;;15.08;57.84;98874.84;5047561;28;20037;-67
2023/03/14 07:11:28;;;;;;;25.02;23.63;;;;;;;15.03;57.65;98886.69;5039685;28;20044;-68
2023/03/14 07:13:53;;;;;;;25.50;24.10;;;;;;;15.06;57.81;98888.75;5046942;28;20122;-67
2023/03/14 07:16:19;;;;;;;22.65;21.48;;;;;;;15.08;57.52;98897.41;5041712;28;20082;-67
2023/03/14 07:18:45;;;;;;;23.92;22.52;;;;;;;15.07;57.54;98903.97;5051741;28;20042;-67
2023/03/14 07:21:10;;;;;;;22.83;21.52;;;;;;;15.04;57.79;98928.25;5044026;28;20393;-67
2023/03/14 07:23:36;;;;;;;22.67;21.58;;;;;;;15.08;57.75;98940.13;5049478;28;20041;-67
2023/03/14 07:26:01;;;;;;;25.27;23.92;;;;;;;15.10;57.79;98937.88;5066418;28;20044;-67
2023/03/14 07:28:27;;;;;;;22.48;21.38;;;;;;;15.10;57.47;98948.75;5052826;28;20460;-67
2023/03/14 07:30:53;;;;;;;25.23;23.83;;;;;;;15.08;57.25;98957.22;5052337;28;20028;-67
2023/03/14 07:33:19;;;;;;;23.58;22.17;;;;;;;15.10;57.03;98965.88;5032184;28;20037;-68
2023/03/14 07:35:47;;;;;;;24.77;23.35;;;;;;;15.12;56.96;98981.88;5031397;28;20489;-68
2023/03/14 07:38:13;;;;;;;22.85;21.55;;;;;;;15.12;57.50;98985.41;5031712;28;20029;-67
2023/03/14 07:40:38;;;;;;;23.27;21.92;;;;;;;15.11;57.32;98994.66;5040142;28;20038;-70
2023/03/14 07:43:04;;;;;;;23.42;22.20;;;;;;;15.12;57.17;98998.22;5058070;28;20087;-68
2023/03/14 07:45:29;;;;;;;24.65;23.35;;;;;;;15.12;56.94;99009.88;5048606;28;20079;-68
2023/03/14 07:47:57;;;;;;;24.88;23.48;;;;;;;15.10;57.05;99020.25;5030060;28;20466;-67
2023/03/14 07:50:23;;;;;;;23.10;21.90;;;;;;;15.07;56.99;99028.25;5034973;28;20040;-67
2023/03/14 07:52:49;;;;;;;24.27;22.88;;;;;;;15.05;56.97;99039.44;5044896;28;20487;-68
2023/03/14 07:55:17;;;;;;;23.88;22.67;;;;;;;15.03;57.24;99038.94;5032139;28;20038;-68
2023/03/14 07:57:42;;;;;;;23.17;21.98;;;;;;;15.03;56.88;99049.81;5031001;28;20036;-67
2023/03/14 08:00:08;;;;;;;25.05;23.65;;;;;;;15.03;56.92;99074.28;5036466;28;20037;-68
2023/03/14 08:02:35;;;;;;;23.92;22.73;;;;;;;15.00;57.22;99085.00;5045329;28;20029;-67
2023/03/14 08:05:01;;;;;;;22.92;21.83;;;;;;;14.94;57.36;99087.03;5059046;28;20099;-67
2023/03/14 08:07:26;;;;;;;23.42;22.23;;;;;;;14.98;57.04;99093.47;5050816;28;20080;-68
2023/03/14 08:09:52;;;;;;;25.08;23.58;;;;;;;14.98;57.13;99101.63;5052109;28;20033;-69
2023/03/14 08:12:17;;;;;;;22.80;21.67;;;;;;;14.97;57.00;99108.19;5045673;28;20100;-67
2023/03/14 08:14:43;;;;;;;22.30;21.20;;;;;;;14.95;57.07;99112.31;5035712;28;20072;-71
2023/03/14 08:17:09;;;;;;;22.35;21.25;;;;;;;14.96;57.01;99120.16;5050495;28;20041;-67
2023/03/14 08:19:34;;;;;;;22.58;21.38;;;;;;;14.96;56.94;99132.94;5040308;28;20040;-68
2023/03/14 08:22:00;;;;;;;24.95;23.30;;;;;;;14.93;57.02;99137.91;5051637;28;20056;-67
2023/03/14 08:24:25;;;;;;;22.17;21.08;;;;;;;14.94;56.93;99149.56;5054846;28;20029;-67
2023/03/14 08:26:51;;;;;;;24.45;23.15;;;;;;;14.92;56.81;99157.25;5055143;28;20051;-68
2023/03/14 08:29:16;;;;;;;23.27;22.10;;;;;;;14.91;57.04;99155.63;5050708;28;20485;-67
2023/03/14 08:31:41;;;;;;;22.23;21.13;;;;;;;14.88;57.00;99169.84;5052588;28;20035;-68
2023/03/14 08:34:07;;;;;;;23.25;21.95;;;;;;;14.83;57.03;99172.69;5060446;28;20032;-68
2023/03/14 08:36:33;;;;;;;22.55;21.42;;;;;;;14.84;57.07;99185.16;5058810;28;20041;-69
2023/03/14 08:38:58;;;;;;;25.10;23.58;;;;;;;14.85;57.08;99190.31;5032927;28;20302;-67
2023/03/14 08:41:24;;;;;;;23.13;21.92;;;;;;;14.85;56.99;99201.19;5036597;28;20041;-68
2023/03/14 08:43:49;;;;;;;22.80;21.40;;;;;;;14.84;57.13;99212.34;5052469;28;20044;-70
2023/03/14 08:46:15;;;;;;;22.88;21.58;;;;;;;14.83;56.94;99216.97;5053889;28;20044;-67
2023/03/14 08:48:40;;;;;;;24.15;22.42;;;;;;;14.83;56.73;99235.22;5060169;28;20036;-68
2023/03/14 08:51:10;;;;;;;22.38;21.10;;;;;;;14.82;56.97;99236.34;5039920;28;20113;-68
2023/03/14 08:53:36;;;;;;;21.65;20.55;;;;;;;14.82;56.77;99241.78;5043857;28;20056;-67
2023/03/14 08:56:03;;;;;;;24.50;23.08;;;;;;;14.81;56.73;99259.97;5032275;28;20041;-67
2023/03/14 08:58:29;;;;;;;22.67;21.58;;;;;;;14.82;56.61;99260.81;5033293;28;20371;-68
2023/03/14 09:00:55;;;;;;;25.02;23.52;;;;;;;14.80;56.68;99265.75;5069901;28;20037;-67
2023/03/14 09:03:22;;;;;;;22.50;21.38;;;;;;;14.78;56.86;99270.66;5052440;28;20148;-68
2023/03/14 09:05:49;;;;;;;22.10;21.00;;;;;;;14.76;57.24;99290.00;5057937;28;20119;-69
2023/03/14 09:08:14;;;;;;;21.10;20.00;;;;;;;14.74;56.89;99297.66;5060457;28;20069;-67
2023/03/14 09:10:39;;;;;;;22.58;21.35;;;;;;;14.71;56.99;99301.78;5059531;28;20032;-68
2023/03/14 09:13:05;;;;;;;24.02;22.52;;;;;;;14.70;57.18;99307.53;5050607;28;20082;-68
2023/03/14 09:15:30;;;;;;;23.55;21.67;;;;;;;14.69;56.98;99331.19;5061508;28;20473;-67
2023/03/14 09:17:55;;;;;;;24.30;22.90;;;;;;;14.68;56.87;99343.16;5035799;28;20029;-67
2023/03/14 09:20:21;;;;;;;21.77;20.58;;;;;;;14.63;57.04;99356.84;5033128;28;20444;-68
2023/03/14 09:22:46;;;;;;;24.15;22.95;;;;;;;14.59;57.16;99369.47;5035504;28;20033;-67
2023/03/14 09:25:12;;;;;;;21.27;20.17;;;;;;;14.62;57.16;99382.44;5052462;28;20445;-67
2023/03/14 09:27:37;;;;;;;23.60;22.45;;;;;;;14.62;56.97;99393.31;5033379;28;20437;-68
2023/03/14 09:30:03;;;;;;;23.48;22.05;;;;;;;14.60;57.35;99406.38;5031922;28;20037;-68
2023/03/14 09:32:31;;;;;;;22.00;20.90;;;;;;;14.61;56.76;99415.34;5038614;28;20040;-68
2023/03/14 09:34:56;;;;;;;23.80;22.50;;;;;;;14.59;57.04;99431.97;5051915;28;20470;-68
2023/03/14 09:37:22;;;;;;;22.20;21.00;;;;;;;14.56;57.00;99454.28;5042127;28;20123;-68
2023/03/14 09:39:47;;;;;;;22.73;21.38;;;;;;;14.47;57.29;99461.50;5042629;28;20040;-69
2023/03/14 09:42:16;;;;;;;21.65;20.55;;;;;;;14.48;57.09;99468.53;5048094;28;20037;-68
2023/03/14 09:44:56;;;;;;;21.27;20.17;;;;;;;14.49;57.15;99476.41;5052362;28;20036;-67
2023/03/14 09:47:22;;;;;;;22.38;21.13;;;;;;;14.46;56.78;99485.16;5050380;28;20047;-68
2023/03/14 09:49:48;;;;;;;20.95;19.85;;;;;;;14.47;56.78;99492.19;5055289;28;20143;-68
2023/03/14 09:52:25;;;;;;;21.58;20.48;;;;;;;14.47;56.71;99504.97;5045111;28;20147;-68
2023/03/14 09:54:56;;;;;;;22.83;21.63;;;;;;;14.47;57.06;99521.28;5050113;28;20032;-69
2023/03/14 09:57:24;;;;;;;22.10;21.00;;;;;;;14.48;56.60;99528.31;5051717;28;20039;-66
2023/03/14 09:59:51;;;;;;;20.38;19.27;;;;;;;14.45;57.03;99534.34;5039167;28;20041;-67
2023/03/14 10:02:18;;;;;;;21.98;20.63;;;;;;;14.47;56.71;99543.00;5048223;28;20166;-67
2023/03/14 10:04:45;;;;;;;21.23;20.13;;;;;;;14.45;56.96;99562.31;5047354;28;20108;-67
2023/03/14 10:07:15;;;;;;;21.60;20.50;;;;;;;14.45;56.77;99565.03;5044567;28;20551;-67
2023/03/14 10:09:42;;;;;;;21.15;19.77;;;;;;;14.45;57.05;99584.06;5046203;28;20063;-66
2023/03/14 10:12:08;;;;;;;22.30;20.98;;;;;;;14.44;56.91;99598.75;5048870;28;20124;-67
2023/03/14 10:14:37;;;;;;;23.95;22.70;;;;;;;14.45;56.93;99597.63;5060024;28;20030;-70
2023/03/14 10:17:11;;;;;;;22.90;21.70;;;;;;;14.45;56.71;99619.38;5057719;28;20029;-68
2023/03/14 10:19:50;;;;;;;19.92;18.92;;;;;;;14.44;57.14;99633.28;5063298;28;20029;-67
2023/03/14 10:22:17;;;;;;;22.10;20.83;;;;;;;14.35;56.87;99646.69;5041594;28;20115;-68
2023/03/14 10:24:49;;;;;;;22.58;21.05;;;;;;;14.39;56.90;99649.63;5041559;28;20561;-70
2023/03/14 10:27:21;;;;;;;21.77;20.25;;;;;;;14.40;57.02;99659.41;5048478;28;20393;-68
2023/03/14 10:29:58;;;;;;;21.20;20.15;;;;;;;14.36;56.81;99666.50;5043035;28;20029;-68
2023/03/14 10:32:41;;;;;;;21.63;20.52;;;;;;;14.34;56.59;99680.41;5063689;28;20102;-67
2023/03/14 10:35:18;;;;;;;21.95;20.75;;;;;;;14.29;56.61;99677.78;5040055;28;20060;-67
2023/03/14 10:37:55;;;;;;;21.80;20.60;;;;;;;14.26;56.64;99689.19;5052423;28;20078;-68
2023/03/14 10:40:27;;;;;;;20.60;19.50;;;;;;;14.28;56.47;99706.81;5051776;28;20028;-68
2023/03/14 10:42:52;;;;;;;21.65;20.52;;;;;;;14.31;56.59;99712.78;5067159;28;20428;-69
2023/03/14 10:45:38;;;;;;;22.45;20.75;;;;;;;14.29;56.53;99724.75;5053506;28;20060;-68
2023/03/14 10:48:19;;;;;;;21.85;20.63;;;;;;;14.31;56.28;99742.66;5047386;28;20068;-69
2023/03/14 10:51:17;;;;;;;20.10;19.00;;;;;;;14.29;56.82;99748.41;5064185;28;20032;-68
2023/03/14 10:53:48;;;;;;;21.67;20.48;;;;;;;14.31;56.57;99754.31;5033591;28;20041;-69
2023/03/14 10:56:21;;;;;;;23.30;21.95;;;;;;;14.31;56.51;99757.03;5050294;28;20041;-71
2023/03/14 10:58:50;;;;;;;20.40;19.30;;;;;;;14.28;56.33;99774.72;5047935;28;20037;-69
2023/03/14 11:01:18;;;;;;;20.88;19.50;;;;;;;14.25;56.78;99771.78;5052721;28;20265;-70
2023/03/14 11:03:52;;;;;;;20.55;19.48;;;;;;;14.29;56.80;99798.09;5047387;28;20037;-68
2023/03/14 11:06:36;;;;;;;22.75;21.55;;;;;;;14.28;56.62;99811.94;5043818;28;20050;-71
2023/03/14 11:09:05;;;;;;;22.40;20.88;;;;;;;14.25;56.78;99824.19;5048573;28;20040;-69
2023/03/14 11:11:31;;;;;;;22.55;21.10;;;;;;;14.21;56.77;99823.19;5053571;28;20507;-67
2023/03/14 11:14:51;;;;;;;23.10;21.77;;;;;;;14.12;56.86;99849.34;5037386;28;20028;-72
2023/03/14 11:17:31;;;;;;;20.73;19.42;;;;;;;14.14;56.81;99849.88;5047066;28;20494;-68
2023/03/14 11:20:41;;;;;;;21.08;19.88;;;;;;;14.19;56.52;99857.97;5031666;28;20041;-68